createdAt,value
2022-08-21T00:04:38.947Z,0
2022-08-21T00:09:57.418Z,0
2022-08-21T00:14:59.099Z,0
2022-08-21T00:20:01.946Z,0.88715
2022-08-21T00:25:03.387Z,0.88715
2022-08-21T00:30:05.217Z,0.88715
2022-08-21T00:35:06.664Z,0
2022-08-21T00:40:08.350Z,0
2022-08-21T00:45:10.150Z,0.88715
2022-08-21T00:50:12.162Z,0.88715
2022-08-21T00:55:23.734Z,0
2022-08-21T01:00:25.940Z,0
2022-08-21T01:05:27.748Z,0
2022-08-21T01:10:29.544Z,0
2022-08-21T01:15:31.996Z,0
2022-08-21T01:20:33.822Z,0.88715
2022-08-21T01:25:35.799Z,0.88715
2022-08-21T01:30:37.579Z,0
2022-08-21T01:35:39.379Z,0
2022-08-21T01:40:41.127Z,0
2022-08-21T01:45:43.245Z,0.88715
2022-08-21T01:50:44.985Z,0
2022-08-21T01:55:46.754Z,0
2022-08-21T02:00:48.753Z,0.88715
2022-08-21T02:05:50.737Z,0
2022-08-21T02:10:52.675Z,0
2022-08-21T02:15:54.640Z,0.88715
2022-08-21T02:20:56.801Z,0.88715
2022-08-21T02:25:58.575Z,0
2022-08-21T02:31:00.377Z,0
2022-08-21T02:36:02.294Z,0.88715
2022-08-21T02:41:03.767Z,0
2022-08-21T02:46:05.568Z,0
2022-08-21T02:51:07.023Z,0
2022-08-21T02:56:08.456Z,0
2022-08-21T03:01:10.105Z,0
2022-08-21T03:06:11.703Z,0.88715
2022-08-21T03:11:13.384Z,0
2022-08-21T03:16:15.638Z,0
2022-08-21T03:21:17.080Z,0
2022-08-21T03:26:18.881Z,0
2022-08-21T03:31:21.586Z,0
2022-08-21T03:36:23.232Z,0
2022-08-21T03:41:25.121Z,0.88715
2022-08-21T03:46:27.073Z,0
2022-08-21T03:51:29.048Z,0.88715
2022-08-21T03:56:31.072Z,0.88715
2022-08-21T04:01:33.069Z,0.88715
2022-08-21T04:06:37.841Z,0
2022-08-21T04:11:39.541Z,0.47405
2022-08-21T04:16:41.552Z,1.6592
2022-08-21T04:21:43.619Z,3.4304
2022-08-21T04:26:45.814Z,5.2739
2022-08-21T04:31:47.713Z,19.64115
2022-08-21T04:36:49.591Z,36.64485
2022-08-21T04:41:51.428Z,59.4578
2022-08-21T04:46:53.159Z,82.76895
2022-08-21T04:51:54.912Z,115.006
2022-08-21T04:56:56.663Z,160.5026
2022-08-21T05:01:58.573Z,203.3066
2022-08-21T05:07:00.429Z,236.2073
2022-08-21T05:12:02.130Z,269.77165
2022-08-21T05:17:04.216Z,299.0575
2022-08-21T05:22:05.868Z,322.11005
2022-08-21T05:27:07.326Z,346.6382
2022-08-21T05:32:09.827Z,381.2541
2022-08-21T05:37:11.491Z,410.79855
2022-08-21T05:42:13.412Z,443.0356
2022-08-21T05:47:15.461Z,467.5086
2022-08-21T05:52:17.413Z,475.66055
2022-08-21T05:57:18.892Z,502.0332
2022-08-21T06:02:20.842Z,519.0559
2022-08-21T06:07:22.703Z,547.27305
2022-08-21T06:12:24.479Z,582.27685
2022-08-21T06:17:26.245Z,627.9769
2022-08-21T06:22:27.713Z,669.39845
2022-08-21T06:27:29.129Z,695.9004
2022-08-21T06:32:31.030Z,723.61935
2022-08-21T06:37:32.462Z,734.51905
2022-08-21T06:42:33.955Z,755.08245
2022-08-21T06:47:36.196Z,793.86655
2022-08-21T06:52:37.672Z,810.2066
2022-08-21T06:57:39.083Z,791.636
2022-08-21T07:02:41.475Z,835.3071
2022-08-21T07:07:43.318Z,850.66975
2022-08-21T07:12:44.973Z,877.22685
2022-08-21T07:17:46.861Z,893.4376
2022-08-21T07:22:48.316Z,922.37355
2022-08-21T07:27:49.804Z,945.38995
2022-08-21T07:32:52.289Z,957.4705
2022-08-21T07:37:53.893Z,996.43905
2022-08-21T07:42:55.460Z,1026.18695
2022-08-21T07:47:57.818Z,1119.22995
2022-08-21T07:52:59.723Z,1117.7372
2022-08-21T07:58:01.439Z,1157.09365
2022-08-21T08:03:03.014Z,1276.28685
2022-08-21T08:08:04.706Z,1230.20075
2022-08-21T08:13:06.389Z,1309.1894
2022-08-21T08:18:12.540Z,1438.59965
2022-08-21T08:23:14.298Z,1464.93615
2022-08-21T08:28:16.853Z,1455.0157
2022-08-21T08:33:19.501Z,1608.087
2022-08-21T08:38:24.449Z,1523.4944
2022-08-21T08:43:26.611Z,1584.63125
2022-08-21T08:48:28.596Z,1715.886
2022-08-21T08:53:30.759Z,1816.63605
2022-08-21T08:58:32.504Z,1688.5378
2022-08-21T09:03:34.302Z,1786.3195
2022-08-21T09:08:36.074Z,1889.17265
2022-08-21T09:13:38.730Z,1867.8543
2022-08-21T09:18:41.094Z,1918.58965
2022-08-21T09:23:42.864Z,1967.55465
2022-08-21T09:28:44.856Z,1996.7492
2022-08-21T09:33:46.478Z,2034.8145
2022-08-21T09:38:48.399Z,2100.70905
2022-08-21T09:43:50.152Z,2221.414
2022-08-21T09:48:52.412Z,2228.36795
2022-08-21T09:53:54.550Z,2393.64725
2022-08-21T09:58:56.244Z,2362.84965
2022-08-21T10:03:59.069Z,2353.68415
2022-08-21T10:09:00.848Z,2533.1281
2022-08-21T10:14:02.758Z,2496.3178
2022-08-21T10:19:04.657Z,2601.5308
2022-08-21T10:24:06.061Z,2676.72015
2022-08-21T10:29:07.762Z,2684.07915
2022-08-21T10:34:09.551Z,2806.2407
2022-08-21T10:39:26.443Z,2924.34435
2022-08-21T10:44:36.830Z,2951.934
2022-08-21T10:49:39.596Z,3005.34295
2022-08-21T10:54:41.023Z,2962.29935
2022-08-21T10:59:42.520Z,3010.1748
2022-08-21T11:04:49.358Z,3461.02775
2022-08-21T11:09:51.851Z,3489.7051
2022-08-21T11:14:53.611Z,3408.7445
2022-08-21T11:19:55.618Z,3368.8917
2022-08-21T11:24:57.262Z,3410.7183
2022-08-21T11:29:58.826Z,3409.66675
2022-08-21T11:35:00.517Z,3456.3252
2022-08-21T11:40:02.179Z,3612.54745
2022-08-21T11:45:03.723Z,3624.49685
2022-08-21T11:50:05.377Z,3702.0822
2022-08-21T11:55:23.800Z,3702.6527
2022-08-21T12:00:26.290Z,3815.07455
2022-08-21T12:05:28.097Z,3725.8327
2022-08-21T12:10:30.009Z,3844.39655
2022-08-21T12:15:32.064Z,3599.927
2022-08-21T12:20:34.699Z,3470.241
2022-08-21T12:25:36.789Z,3535.027
2022-08-21T12:30:43.659Z,3561.38065
2022-08-21T12:35:45.576Z,3540.81725
2022-08-21T12:40:47.433Z,3523.42565
2022-08-21T12:45:49.169Z,3457.5311
2022-08-21T12:50:51.550Z,3491.7781
2022-08-21T12:55:53.273Z,3354.3832
2022-08-21T13:00:55.048Z,3339.9618
2022-08-21T13:05:56.824Z,3269.30955
2022-08-21T13:10:58.707Z,3214.51815
2022-08-21T13:16:01.031Z,3220.1981
2022-08-21T13:21:03.649Z,3100.61885
2022-08-21T13:26:05.063Z,2991.88415
2022-08-21T13:31:06.805Z,2846.265
2022-08-21T13:36:08.379Z,2649.4883
2022-08-21T13:41:09.902Z,2575.8487
2022-08-21T13:46:11.495Z,2326.6386
2022-08-21T13:51:13.273Z,2333.79415
2022-08-21T13:56:14.679Z,2223.19595
2022-08-21T14:01:16.275Z,2153.31765
2022-08-21T14:06:17.890Z,1942.5969
2022-08-21T14:11:19.655Z,1746.31655
2022-08-21T14:16:21.617Z,1648.4607
2022-08-21T14:21:24.078Z,1510.6779
2022-08-21T14:26:25.964Z,1433.47675
2022-08-21T14:31:27.692Z,1315.9056
2022-08-21T14:36:34.709Z,1159.054
2022-08-21T14:41:38.295Z,1041.79845
2022-08-21T14:46:45.791Z,903.5916
2022-08-21T14:51:59.565Z,770.76995
2022-08-21T14:57:01.704Z,653.07135
2022-08-21T15:02:03.888Z,573.28975
2022-08-21T15:07:05.770Z,459.50075
2022-08-21T15:12:07.533Z,355.6702
2022-08-21T15:17:08.957Z,256.59735
2022-08-21T15:22:15.413Z,179.13505
2022-08-21T15:27:20.570Z,133.7856
2022-08-21T15:32:22.369Z,114.41835
2022-08-21T15:37:24.237Z,93.81695
2022-08-21T15:42:27.092Z,64.80685
2022-08-21T15:47:28.720Z,38.24975
2022-08-21T15:52:30.816Z,16.8934
2022-08-21T15:57:32.692Z,5.6887
2022-08-21T16:02:34.424Z,3.37765
2022-08-21T16:07:36.282Z,1.24435
2022-08-21T16:12:38.250Z,0.47405
2022-08-21T16:17:39.997Z,1.16185
2022-08-21T16:22:44.860Z,0.88715
2022-08-21T16:27:46.877Z,0.88715
2022-08-21T16:32:48.547Z,0.88715
2022-08-21T16:37:53.148Z,0
2022-08-21T16:42:55.366Z,0.88715
2022-08-21T16:47:57.234Z,0
2022-08-21T16:52:59.290Z,0
2022-08-21T16:58:01.254Z,0.88715
2022-08-21T17:03:03.041Z,0.88715
2022-08-21T17:08:04.861Z,0.88715
2022-08-21T17:13:09.544Z,0.88715
2022-08-21T17:18:11.401Z,0
2022-08-21T17:23:13.084Z,0.88715
2022-08-21T17:28:14.514Z,0.88715
2022-08-21T17:33:16.285Z,0
2022-08-21T17:38:17.930Z,0
2022-08-21T17:43:19.477Z,0.88715
2022-08-21T17:48:25.538Z,0
2022-08-21T17:53:27.774Z,0
2022-08-21T17:58:29.586Z,0
2022-08-21T18:03:31.381Z,0
2022-08-21T18:08:39.038Z,0.88715
2022-08-21T18:13:40.524Z,0.88715
2022-08-21T18:18:42.365Z,0
2022-08-21T18:23:44.970Z,0.88715
2022-08-21T18:28:46.693Z,0.88715
2022-08-21T18:33:57.774Z,0
2022-08-21T18:39:19.289Z,0.88715
2022-08-21T18:44:27.636Z,0
2022-08-21T18:49:29.184Z,0
2022-08-21T18:54:31.376Z,0
2022-08-21T18:59:33.187Z,0
2022-08-21T19:04:43.684Z,0
